sensor_id;sensor_type;location;lat;lon;timestamp;pressure;altitude;pressure_sealevel;temperature;humidity
18201;BME280;9226;47.858;9.594;2022-09-27T00:01:55;93745.72;;;11.98;75.57
18201;BME280;9226;47.858;9.594;2022-09-27T00:04:21;93740.59;;;11.88;76.37
18201;BME280;9226;47.858;9.594;2022-09-27T00:06:46;93749.06;;;11.92;76.51
18201;BME280;9226;47.858;9.594;2022-09-27T00:09:11;93737.75;;;11.90;75.85
18201;BME280;9226;47.858;9.594;2022-09-27T00:11:39;93742.75;;;11.93;75.99
18201;BME280;9226;47.858;9.594;2022-09-27T00:14:07;93735.50;;;11.79;76.93
18201;BME280;9226;47.858;9.594;2022-09-27T00:16:36;93735.16;;;11.82;76.37
18201;BME280;9226;47.858;9.594;2022-09-27T00:19:21;93738.66;;;11.74;77.66
18201;BME280;9226;47.858;9.594;2022-09-27T00:21:48;93730.75;;;11.66;78.29
18201;BME280;9226;47.858;9.594;2022-09-27T00:24:19;93725.97;;;11.61;77.99
18201;BME280;9226;47.858;9.594;2022-09-27T00:26:46;93721.50;;;11.53;78.60
18201;BME280;9226;47.858;9.594;2022-09-27T00:29:13;93710.75;;;11.47;78.77
18201;BME280;9226;47.858;9.594;2022-09-27T00:31:39;93713.06;;;11.41;79.78
18201;BME280;9226;47.858;9.594;2022-09-27T00:34:06;93713.78;;;11.35;79.91
18201;BME280;9226;47.858;9.594;2022-09-27T00:36:32;93712.72;;;11.45;78.46
18201;BME280;9226;47.858;9.594;2022-09-27T00:38:59;93714.78;;;11.34;79.37
18201;BME280;9226;47.858;9.594;2022-09-27T00:41:33;93706.84;;;11.26;80.11
18201;BME280;9226;47.858;9.594;2022-09-27T00:44:01;93699.56;;;11.20;80.57
18201;BME280;9226;47.858;9.594;2022-09-27T00:46:45;93701.03;;;11.22;80.13
18201;BME280;9226;47.858;9.594;2022-09-27T00:49:21;93693.59;;;11.18;80.87
18201;BME280;9226;47.858;9.594;2022-09-27T00:51:53;93694.63;;;11.09;80.94
18201;BME280;9226;47.858;9.594;2022-09-27T00:54:23;93693.28;;;11.13;80.84
18201;BME280;9226;47.858;9.594;2022-09-27T00:56:50;93675.72;;;11.12;80.98
18201;BME280;9226;47.858;9.594;2022-09-27T00:59:21;93684.50;;;11.12;80.96
18201;BME280;9226;47.858;9.594;2022-09-27T01:01:49;93682.69;;;11.04;82.11
18201;BME280;9226;47.858;9.594;2022-09-27T01:04:18;93683.34;;;11.07;81.89
18201;BME280;9226;47.858;9.594;2022-09-27T01:06:47;93685.50;;;11.11;81.24
18201;BME280;9226;47.858;9.594;2022-09-27T01:09:12;93679.53;;;11.09;81.45
18201;BME280;9226;47.858;9.594;2022-09-27T01:11:48;93678.38;;;11.03;82.11
18201;BME280;9226;47.858;9.594;2022-09-27T01:15:27;93684.19;;;10.99;82.61
18201;BME280;9226;47.858;9.594;2022-09-27T01:30:28;93656.06;;;10.90;83.45
18201;BME280;9226;47.858;9.594;2022-09-27T01:38:42;93645.28;;;10.83;83.79
18201;BME280;9226;47.858;9.594;2022-09-27T01:43:52;93641.63;;;10.84;83.93
18201;BME280;9226;47.858;9.594;2022-09-27T01:46:25;93644.75;;;10.88;83.97
18201;BME280;9226;47.858;9.594;2022-09-27T01:48:53;93637.50;;;10.81;83.90
18201;BME280;9226;47.858;9.594;2022-09-27T01:52:04;93631.03;;;10.84;83.80
18201;BME280;9226;47.858;9.594;2022-09-27T01:54:39;93640.13;;;10.81;83.73
18201;BME280;9226;47.858;9.594;2022-09-27T01:57:07;93631.72;;;10.78;84.14
18201;BME280;9226;47.858;9.594;2022-09-27T01:59:44;93634.34;;;10.78;84.69
18201;BME280;9226;47.858;9.594;2022-09-27T02:02:11;93624.75;;;10.77;84.75
18201;BME280;9226;47.858;9.594;2022-09-27T02:04:39;93632.19;;;10.90;84.02
18201;BME280;9226;47.858;9.594;2022-09-27T02:07:17;93621.22;;;10.84;84.87
18201;BME280;9226;47.858;9.594;2022-09-27T02:10:10;93629.03;;;10.86;84.61
18201;BME280;9226;47.858;9.594;2022-09-27T02:12:39;93623.59;;;10.79;84.83
18201;BME280;9226;47.858;9.594;2022-09-27T02:15:10;93630.81;;;10.94;83.89
18201;BME280;9226;47.858;9.594;2022-09-27T02:17:46;93635.50;;;10.83;84.72
18201;BME280;9226;47.858;9.594;2022-09-27T02:20:39;93638.31;;;10.90;84.67
18201;BME280;9226;47.858;9.594;2022-09-27T02:26:00;93632.19;;;10.81;84.95
18201;BME280;9226;47.858;9.594;2022-09-27T02:28:37;93627.72;;;10.82;84.53
18201;BME280;9226;47.858;9.594;2022-09-27T02:31:04;93629.03;;;10.86;84.72
18201;BME280;9226;47.858;9.594;2022-09-27T02:33:49;93622.72;;;10.87;84.60
18201;BME280;9226;47.858;9.594;2022-09-27T02:36:17;93639.13;;;10.91;84.43
18201;BME280;9226;47.858;9.594;2022-09-27T02:38:43;93619.38;;;10.93;83.77
18201;BME280;9226;47.858;9.594;2022-09-27T02:41:17;93620.41;;;10.84;84.00
18201;BME280;9226;47.858;9.594;2022-09-27T02:43:45;93634.31;;;10.86;84.54
18201;BME280;9226;47.858;9.594;2022-09-27T02:46:19;93623.41;;;10.81;84.32
18201;BME280;9226;47.858;9.594;2022-09-27T02:52:12;93634.97;;;10.96;83.83
18201;BME280;9226;47.858;9.594;2022-09-27T03:00:21;93637.16;;;10.84;84.35
18201;BME280;9226;47.858;9.594;2022-09-27T03:05:28;93644.94;;;10.86;84.61
18201;BME280;9226;47.858;9.594;2022-09-27T03:07:56;93642.59;;;10.99;83.44
18201;BME280;9226;47.858;9.594;2022-09-27T03:10:26;93664.19;;;10.88;83.99
18201;BME280;9226;47.858;9.594;2022-09-27T03:12:52;93655.53;;;10.86;83.60
18201;BME280;9226;47.858;9.594;2022-09-27T03:15:19;93654.06;;;10.92;83.22
18201;BME280;9226;47.858;9.594;2022-09-27T03:17:45;93661.03;;;10.93;83.35
18201;BME280;9226;47.858;9.594;2022-09-27T03:20:10;93650.75;;;10.90;83.52
18201;BME280;9226;47.858;9.594;2022-09-27T03:22:36;93667.78;;;10.95;83.43
18201;BME280;9226;47.858;9.594;2022-09-27T03:25:03;93666.50;;;10.91;83.90
18201;BME280;9226;47.858;9.594;2022-09-27T03:27:29;93663.81;;;10.99;83.52
18201;BME280;9226;47.858;9.594;2022-09-27T03:29:55;93668.09;;;11.00;83.42
18201;BME280;9226;47.858;9.594;2022-09-27T03:32:20;93679.41;;;11.02;83.37
18201;BME280;9226;47.858;9.594;2022-09-27T03:34:46;93674.94;;;10.95;83.94
18201;BME280;9226;47.858;9.594;2022-09-27T03:37:11;93675.41;;;10.98;84.05
18201;BME280;9226;47.858;9.594;2022-09-27T03:39:37;93676.41;;;11.06;83.80
18201;BME280;9226;47.858;9.594;2022-09-27T03:42:02;93667.75;;;11.03;83.74
18201;BME280;9226;47.858;9.594;2022-09-27T03:44:28;93676.75;;;11.02;83.42
18201;BME280;9226;47.858;9.594;2022-09-27T03:46:53;93671.44;;;11.02;83.76
18201;BME280;9226;47.858;9.594;2022-09-27T03:49:19;93673.75;;;10.97;84.02
18201;BME280;9226;47.858;9.594;2022-09-27T03:51:44;93664.81;;;10.98;83.99
18201;BME280;9226;47.858;9.594;2022-09-27T03:54:10;93672.75;;;10.98;83.54
18201;BME280;9226;47.858;9.594;2022-09-27T03:56:35;93676.41;;;11.06;82.72
18201;BME280;9226;47.858;9.594;2022-09-27T03:59:01;93675.72;;;11.12;82.18
18201;BME280;9226;47.858;9.594;2022-09-27T04:01:26;93671.75;;;11.08;82.24
18201;BME280;9226;47.858;9.594;2022-09-27T04:03:53;93673.41;;;11.00;81.73
18201;BME280;9226;47.858;9.594;2022-09-27T04:06:18;93668.28;;;11.07;81.52
18201;BME280;9226;47.858;9.594;2022-09-27T04:08:44;93673.06;;;11.03;81.75
18201;BME280;9226;47.858;9.594;2022-09-27T04:11:10;93680.41;;;10.93;82.06
18201;BME280;9226;47.858;9.594;2022-09-27T04:13:36;93682.38;;;10.99;81.58
18201;BME280;9226;47.858;9.594;2022-09-27T04:16:02;93685.56;;;10.95;82.42
18201;BME280;9226;47.858;9.594;2022-09-27T04:18:28;93682.72;;;10.96;81.99
18201;BME280;9226;47.858;9.594;2022-09-27T04:20:53;93692.69;;;10.94;82.57
18201;BME280;9226;47.858;9.594;2022-09-27T04:23:19;93687.69;;;10.99;82.25
18201;BME280;9226;47.858;9.594;2022-09-27T04:25:45;93699.13;;;11.00;81.89
18201;BME280;9226;47.858;9.594;2022-09-27T04:28:12;93699.94;;;11.00;81.74
18201;BME280;9226;47.858;9.594;2022-09-27T04:30:37;93706.25;;;11.08;81.43
18201;BME280;9226;47.858;9.594;2022-09-27T04:33:03;93702.25;;;11.03;81.92
18201;BME280;9226;47.858;9.594;2022-09-27T04:35:29;93700.97;;;10.99;81.50
18201;BME280;9226;47.858;9.594;2022-09-27T04:38:13;93697.97;;;11.02;81.50
18201;BME280;9226;47.858;9.594;2022-09-27T04:40:39;93706.13;;;10.93;81.82
18201;BME280;9226;47.858;9.594;2022-09-27T04:43:05;93698.47;;;10.98;81.63
18201;BME280;9226;47.858;9.594;2022-09-27T04:45:30;93701.31;;;10.96;81.85
18201;BME280;9226;47.858;9.594;2022-09-27T04:47:56;93705.94;;;11.02;81.20
18201;BME280;9226;47.858;9.594;2022-09-27T04:50:21;93708.41;;;10.96;81.37
18201;BME280;9226;47.858;9.594;2022-09-27T04:52:50;93713.94;;;10.78;82.17
18201;BME280;9226;47.858;9.594;2022-09-27T04:55:17;93719.06;;;10.88;81.69
18201;BME280;9226;47.858;9.594;2022-09-27T04:57:42;93719.88;;;10.80;82.25
18201;BME280;9226;47.858;9.594;2022-09-27T05:00:08;93726.38;;;10.77;82.01
18201;BME280;9226;47.858;9.594;2022-09-27T05:02:34;93731.50;;;10.79;81.69
18201;BME280;9226;47.858;9.594;2022-09-27T05:05:00;93737.31;;;10.74;82.21
18201;BME280;9226;47.858;9.594;2022-09-27T05:07:26;93733.00;;;10.65;83.04
18201;BME280;9226;47.858;9.594;2022-09-27T05:09:52;93736.31;;;10.75;82.12
18201;BME280;9226;47.858;9.594;2022-09-27T05:12:18;93730.84;;;10.77;82.36
18201;BME280;9226;47.858;9.594;2022-09-27T05:14:44;93741.81;;;10.74;82.11
18201;BME280;9226;47.858;9.594;2022-09-27T05:17:09;93743.75;;;10.80;81.73
18201;BME280;9226;47.858;9.594;2022-09-27T05:19:35;93741.81;;;10.74;81.68
18201;BME280;9226;47.858;9.594;2022-09-27T05:22:00;93746.25;;;10.73;81.59
18201;BME280;9226;47.858;9.594;2022-09-27T05:24:26;93748.09;;;10.81;81.15
18201;BME280;9226;47.858;9.594;2022-09-27T05:26:57;93753.38;;;10.81;81.18
18201;BME280;9226;47.858;9.594;2022-09-27T05:29:23;93748.75;;;10.66;81.70
18201;BME280;9226;47.858;9.594;2022-09-27T05:31:48;93754.72;;;10.77;81.17
18201;BME280;9226;47.858;9.594;2022-09-27T05:34:15;93753.06;;;10.84;81.08
18201;BME280;9226;47.858;9.594;2022-09-27T05:36:42;93759.69;;;10.72;81.75
18201;BME280;9226;47.858;9.594;2022-09-27T05:39:08;93766.34;;;10.76;81.82
18201;BME280;9226;47.858;9.594;2022-09-27T05:41:33;93770.63;;;10.77;81.20
18201;BME280;9226;47.858;9.594;2022-09-27T05:43:58;93771.47;;;10.69;82.30
18201;BME280;9226;47.858;9.594;2022-09-27T05:46:24;93772.63;;;10.75;81.78
18201;BME280;9226;47.858;9.594;2022-09-27T05:48:50;93767.97;;;10.77;81.30
18201;BME280;9226;47.858;9.594;2022-09-27T05:51:15;93761.34;;;10.73;80.89
18201;BME280;9226;47.858;9.594;2022-09-27T05:53:41;93764.00;;;10.81;81.01
18201;BME280;9226;47.858;9.594;2022-09-27T05:56:06;93777.44;;;10.79;81.18
18201;BME280;9226;47.858;9.594;2022-09-27T05:58:32;93768.66;;;10.71;81.04
18201;BME280;9226;47.858;9.594;2022-09-27T06:00:58;93776.28;;;10.74;80.71
18201;BME280;9226;47.858;9.594;2022-09-27T06:03:24;93789.88;;;10.79;80.30
18201;BME280;9226;47.858;9.594;2022-09-27T06:05:50;93790.03;;;10.85;80.57
18201;BME280;9226;47.858;9.594;2022-09-27T06:08:15;93788.88;;;10.88;80.79
18201;BME280;9226;47.858;9.594;2022-09-27T06:10:41;93797.50;;;10.90;80.23
18201;BME280;9226;47.858;9.594;2022-09-27T06:13:10;93797.84;;;10.71;80.79
18201;BME280;9226;47.858;9.594;2022-09-27T06:15:38;93787.88;;;10.73;80.96
18201;BME280;9226;47.858;9.594;2022-09-27T06:18:06;93791.53;;;10.88;80.26
18201;BME280;9226;47.858;9.594;2022-09-27T06:20:32;93795.97;;;10.96;79.92
18201;BME280;9226;47.858;9.594;2022-09-27T06:25:29;93796.16;;;10.86;80.59
18201;BME280;9226;47.858;9.594;2022-09-27T06:27:55;93799.47;;;10.96;80.55
18201;BME280;9226;47.858;9.594;2022-09-27T06:30:20;93799.81;;;10.93;79.78
18201;BME280;9226;47.858;9.594;2022-09-27T06:32:46;93796.84;;;10.88;80.12
18201;BME280;9226;47.858;9.594;2022-09-27T06:35:11;93796.81;;;10.96;79.76
18201;BME280;9226;47.858;9.594;2022-09-27T06:37:37;93808.41;;;10.95;79.87
18201;BME280;9226;47.858;9.594;2022-09-27T06:40:02;93805.75;;;11.03;79.89
18201;BME280;9226;47.858;9.594;2022-09-27T06:42:28;93806.94;;;10.93;79.97
18201;BME280;9226;47.858;9.594;2022-09-27T06:44:54;93811.06;;;11.03;79.63
18201;BME280;9226;47.858;9.594;2022-09-27T06:47:20;93818.34;;;11.18;79.49
18201;BME280;9226;47.858;9.594;2022-09-27T06:49:45;93807.03;;;11.24;79.36
18201;BME280;9226;47.858;9.594;2022-09-27T06:52:11;93814.84;;;11.34;79.23
18201;BME280;9226;47.858;9.594;2022-09-27T06:54:36;93821.28;;;11.39;78.52
18201;BME280;9226;47.858;9.594;2022-09-27T06:57:01;93825.44;;;11.42;78.53
18201;BME280;9226;47.858;9.594;2022-09-27T06:59:27;93831.19;;;11.62;77.91
18201;BME280;9226;47.858;9.594;2022-09-27T07:02:11;93828.56;;;11.54;76.68
18201;BME280;9226;47.858;9.594;2022-09-27T07:04:38;93843.47;;;11.63;76.59
18201;BME280;9226;47.858;9.594;2022-09-27T07:07:04;93842.28;;;11.74;75.92
18201;BME280;9226;47.858;9.594;2022-09-27T07:09:30;93843.47;;;11.63;75.67
18201;BME280;9226;47.858;9.594;2022-09-27T07:11:55;93846.84;;;11.49;74.97
18201;BME280;9226;47.858;9.594;2022-09-27T07:14:23;93845.16;;;11.48;75.00
18201;BME280;9226;47.858;9.594;2022-09-27T07:16:50;93856.41;;;11.66;75.51
18201;BME280;9226;47.858;9.594;2022-09-27T07:19:16;93860.69;;;11.84;76.36
18201;BME280;9226;47.858;9.594;2022-09-27T07:21:42;93865.25;;;12.15;75.95
18201;BME280;9226;47.858;9.594;2022-09-27T07:24:08;93871.81;;;12.27;74.65
18201;BME280;9226;47.858;9.594;2022-09-27T07:26:33;93868.63;;;12.31;73.63
18201;BME280;9226;47.858;9.594;2022-09-27T07:28:59;93871.22;;;12.48;73.41
18201;BME280;9226;47.858;9.594;2022-09-27T07:31:25;93870.13;;;12.34;72.31
18201;BME280;9226;47.858;9.594;2022-09-27T07:33:51;93869.31;;;12.34;71.83
18201;BME280;9226;47.858;9.594;2022-09-27T07:36:17;93876.72;;;12.46;72.06
18201;BME280;9226;47.858;9.594;2022-09-27T07:38:42;93880.31;;;12.30;72.67
18201;BME280;9226;47.858;9.594;2022-09-27T07:41:10;93885.41;;;12.40;72.59
18201;BME280;9226;47.858;9.594;2022-09-27T07:43:36;93891.00;;;12.45;72.08
18201;BME280;9226;47.858;9.594;2022-09-27T07:46:02;93896.22;;;12.39;72.20
18201;BME280;9226;47.858;9.594;2022-09-27T07:48:27;93895.69;;;12.43;71.94
18201;BME280;9226;47.858;9.594;2022-09-27T07:50:53;93899.69;;;12.39;72.10
18201;BME280;9226;47.858;9.594;2022-09-27T07:53:18;93909.00;;;12.43;72.08
18201;BME280;9226;47.858;9.594;2022-09-27T07:55:52;93910.63;;;12.44;71.68
18201;BME280;9226;47.858;9.594;2022-09-27T07:58:18;93909.13;;;12.50;71.59
18201;BME280;9226;47.858;9.594;2022-09-27T08:00:44;93912.28;;;12.45;71.19
18201;BME280;9226;47.858;9.594;2022-09-27T08:03:12;93915.81;;;12.38;71.60
18201;BME280;9226;47.858;9.594;2022-09-27T08:05:45;93915.41;;;12.18;71.90
18201;BME280;9226;47.858;9.594;2022-09-27T08:08:12;93905.13;;;12.15;72.35
18201;BME280;9226;47.858;9.594;2022-09-27T08:10:38;93910.09;;;12.18;72.64
18201;BME280;9226;47.858;9.594;2022-09-27T08:13:09;93922.84;;;12.22;72.88
18201;BME280;9226;47.858;9.594;2022-09-27T08:15:35;93925.56;;;12.14;73.09
18201;BME280;9226;47.858;9.594;2022-09-27T08:18:03;93919.84;;;12.25;73.57
18201;BME280;9226;47.858;9.594;2022-09-27T08:20:29;93933.66;;;12.29;73.21
18201;BME280;9226;47.858;9.594;2022-09-27T08:22:54;93926.63;;;12.36;72.88
18201;BME280;9226;47.858;9.594;2022-09-27T08:25:20;93935.19;;;12.55;71.90
18201;BME280;9226;47.858;9.594;2022-09-27T08:27:59;93938.84;;;12.62;71.15
18201;BME280;9226;47.858;9.594;2022-09-27T08:30:25;93939.00;;;12.60;71.47
18201;BME280;9226;47.858;9.594;2022-09-27T08:32:59;93941.75;;;12.75;71.59
18201;BME280;9226;47.858;9.594;2022-09-27T08:35:25;93946.47;;;12.88;71.80
18201;BME280;9226;47.858;9.594;2022-09-27T08:37:56;93934.63;;;12.99;71.45
18201;BME280;9226;47.858;9.594;2022-09-27T08:48:58;93975.75;;;13.19;68.06
18201;BME280;9226;47.858;9.594;2022-09-27T08:51:29;93967.16;;;13.09;68.49
18201;BME280;9226;47.858;9.594;2022-09-27T08:54:05;93959.94;;;13.18;67.77
18201;BME280;9226;47.858;9.594;2022-09-27T08:56:32;93956.19;;;13.04;67.61
18201;BME280;9226;47.858;9.594;2022-09-27T08:59:06;93955.56;;;13.02;67.72
18201;BME280;9226;47.858;9.594;2022-09-27T09:01:34;93970.81;;;13.08;67.69
18201;BME280;9226;47.858;9.594;2022-09-27T09:04:01;93972.06;;;12.97;67.90
18201;BME280;9226;47.858;9.594;2022-09-27T09:07:00;93981.22;;;12.95;66.92
18201;BME280;9226;47.858;9.594;2022-09-27T09:10:00;93984.28;;;12.83;66.73
18201;BME280;9226;47.858;9.594;2022-09-27T09:20:57;93991.88;;;12.55;68.02
18201;BME280;9226;47.858;9.594;2022-09-27T09:23:41;93993.69;;;12.63;67.88
18201;BME280;9226;47.858;9.594;2022-09-27T09:35:26;94014.81;;;12.96;67.45
18201;BME280;9226;47.858;9.594;2022-09-27T09:37:58;94007.75;;;13.11;66.23
18201;BME280;9226;47.858;9.594;2022-09-27T09:40:42;94010.28;;;12.73;65.29
18201;BME280;9226;47.858;9.594;2022-09-27T09:43:31;94013.63;;;13.38;66.54
18201;BME280;9226;47.858;9.594;2022-09-27T09:46:12;94012.78;;;13.61;64.94
18201;BME280;9226;47.858;9.594;2022-09-27T09:49:21;93994.28;;;13.82;64.17
18201;BME280;9226;47.858;9.594;2022-09-27T09:51:49;94013.66;;;14.14;63.70
18201;BME280;9226;47.858;9.594;2022-09-27T09:56:48;94012.72;;;14.07;63.15
18201;BME280;9226;47.858;9.594;2022-09-27T10:01:46;94003.13;;;13.98;62.11
18201;BME280;9226;47.858;9.594;2022-09-27T10:04:20;94009.50;;;14.11;62.46
18201;BME280;9226;47.858;9.594;2022-09-27T10:06:47;94007.47;;;14.14;62.46
18201;BME280;9226;47.858;9.594;2022-09-27T10:09:15;94007.59;;;14.20;61.83
18201;BME280;9226;47.858;9.594;2022-09-27T10:11:44;94006.47;;;14.00;62.20
18201;BME280;9226;47.858;9.594;2022-09-27T10:14:12;94006.09;;;14.03;62.70
18201;BME280;9226;47.858;9.594;2022-09-27T10:16:43;94004.59;;;13.85;62.56
18201;BME280;9226;47.858;9.594;2022-09-27T10:19:12;94007.25;;;13.85;63.67
18201;BME280;9226;47.858;9.594;2022-09-27T10:21:41;94013.75;;;13.83;62.58
18201;BME280;9226;47.858;9.594;2022-09-27T10:24:14;94009.16;;;13.77;62.72
18201;BME280;9226;47.858;9.594;2022-09-27T10:26:42;94010.03;;;13.69;62.30
18201;BME280;9226;47.858;9.594;2022-09-27T10:31:47;94004.66;;;13.54;63.25
18201;BME280;9226;47.858;9.594;2022-09-27T10:39:39;93985.66;;;13.34;65.92
18201;BME280;9226;47.858;9.594;2022-09-27T10:42:33;93987.38;;;13.18;66.49
18201;BME280;9226;47.858;9.594;2022-09-27T10:45:38;93986.16;;;13.29;66.35
18201;BME280;9226;47.858;9.594;2022-09-27T10:48:04;93979.63;;;13.40;66.45
18201;BME280;9226;47.858;9.594;2022-09-27T10:50:30;93982.22;;;13.48;66.43
18201;BME280;9226;47.858;9.594;2022-09-27T10:53:21;93982.47;;;13.62;66.76
18201;BME280;9226;47.858;9.594;2022-09-27T10:55:51;93983.03;;;13.72;66.27
18201;BME280;9226;47.858;9.594;2022-09-27T10:58:36;93977.56;;;13.88;64.72
18201;BME280;9226;47.858;9.594;2022-09-27T11:01:05;93992.25;;;13.84;63.70
18201;BME280;9226;47.858;9.594;2022-09-27T11:03:35;93984.16;;;13.78;63.97
18201;BME280;9226;47.858;9.594;2022-09-27T11:08:46;93976.28;;;13.61;63.61
18201;BME280;9226;47.858;9.594;2022-09-27T11:13:39;93985.75;;;13.17;64.41
18201;BME280;9226;47.858;9.594;2022-09-27T11:16:23;93989.59;;;12.83;65.82
18201;BME280;9226;47.858;9.594;2022-09-27T11:38:29;93952.13;;;13.16;69.58
18201;BME280;9226;47.858;9.594;2022-09-27T11:46:26;93935.06;;;13.72;65.84
18201;BME280;9226;47.858;9.594;2022-09-27T11:52:04;93934.97;;;13.80;64.06
18201;BME280;9226;47.858;9.594;2022-09-27T11:57:23;93939.38;;;13.73;65.01
18201;BME280;9226;47.858;9.594;2022-09-27T12:08:40;93938.44;;;14.19;64.21
18201;BME280;9226;47.858;9.594;2022-09-27T12:16:44;93931.75;;;14.59;63.56
18201;BME280;9226;47.858;9.594;2022-09-27T12:19:22;93918.44;;;14.74;63.20
18201;BME280;9226;47.858;9.594;2022-09-27T12:21:48;93926.13;;;14.84;62.45
18201;BME280;9226;47.858;9.594;2022-09-27T12:24:19;93925.19;;;14.92;60.81
18201;BME280;9226;47.858;9.594;2022-09-27T12:26:46;93911.63;;;14.72;59.67
18201;BME280;9226;47.858;9.594;2022-09-27T12:29:33;93906.69;;;14.90;60.50
18201;BME280;9226;47.858;9.594;2022-09-27T12:40:24;93903.22;;;14.75;58.89
18201;BME280;9226;47.858;9.594;2022-09-27T12:43:15;93902.53;;;14.88;58.98
18201;BME280;9226;47.858;9.594;2022-09-27T12:51:44;93904.22;;;14.89;57.50
18201;BME280;9226;47.858;9.594;2022-09-27T13:12:48;93905.28;;;14.43;56.72
18201;BME280;9226;47.858;9.594;2022-09-27T13:15:29;93907.72;;;14.59;56.74
18201;BME280;9226;47.858;9.594;2022-09-27T13:17:57;93903.34;;;14.52;57.16
18201;BME280;9226;47.858;9.594;2022-09-27T13:31:11;93906.88;;;14.22;56.07
18201;BME280;9226;47.858;9.594;2022-09-27T13:33:48;93891.88;;;14.21;56.90
18201;BME280;9226;47.858;9.594;2022-09-27T13:46:50;93879.63;;;14.12;57.47
18201;BME280;9226;47.858;9.594;2022-09-27T13:49:29;93866.78;;;14.16;56.39
18201;BME280;9226;47.858;9.594;2022-09-27T13:52:02;93872.50;;;14.13;56.88
18201;BME280;9226;47.858;9.594;2022-09-27T13:57:00;93882.41;;;14.19;57.51
18201;BME280;9226;47.858;9.594;2022-09-27T13:59:38;93874.41;;;14.19;57.90
18201;BME280;9226;47.858;9.594;2022-09-27T14:04:40;93885.78;;;14.27;57.62
18201;BME280;9226;47.858;9.594;2022-09-27T14:07:11;93875.13;;;14.42;57.63
18201;BME280;9226;47.858;9.594;2022-09-27T14:09:39;93867.94;;;14.43;57.11
18201;BME280;9226;47.858;9.594;2022-09-27T14:12:16;93878.38;;;14.59;57.04
18201;BME280;9226;47.858;9.594;2022-09-27T14:14:44;93892.66;;;14.67;57.55
18201;BME280;9226;47.858;9.594;2022-09-27T14:17:11;93887.97;;;14.69;55.94
18201;BME280;9226;47.858;9.594;2022-09-27T14:19:41;93887.97;;;14.54;56.42
18201;BME280;9226;47.858;9.594;2022-09-27T14:22:16;93883.69;;;14.38;56.65
18201;BME280;9226;47.858;9.594;2022-09-27T14:24:45;93868.84;;;14.50;56.94
18201;BME280;9226;47.858;9.594;2022-09-27T14:29:51;93877.03;;;14.63;56.21
18201;BME280;9226;47.858;9.594;2022-09-27T14:32:23;93883.38;;;14.62;56.50
18201;BME280;9226;47.858;9.594;2022-09-27T14:35:21;93877.13;;;14.55;56.22
18201;BME280;9226;47.858;9.594;2022-09-27T14:38:12;93892.56;;;14.45;58.15
18201;BME280;9226;47.858;9.594;2022-09-27T14:40:43;93901.25;;;14.32;59.33
18201;BME280;9226;47.858;9.594;2022-09-27T14:43:19;93886.28;;;14.16;60.27
18201;BME280;9226;47.858;9.594;2022-09-27T14:45:51;93884.16;;;14.26;60.50
18201;BME280;9226;47.858;9.594;2022-09-27T14:48:27;93892.72;;;14.07;60.04
18201;BME280;9226;47.858;9.594;2022-09-27T14:53:49;93880.47;;;13.98;60.90
18201;BME280;9226;47.858;9.594;2022-09-27T14:56:24;93897.66;;;13.65;61.94
18201;BME280;9226;47.858;9.594;2022-09-27T14:59:02;93901.16;;;13.81;61.95
18201;BME280;9226;47.858;9.594;2022-09-27T15:01:29;93904.75;;;13.73;62.18
18201;BME280;9226;47.858;9.594;2022-09-27T15:04:03;93900.13;;;13.67;63.33
18201;BME280;9226;47.858;9.594;2022-09-27T15:06:30;93900.66;;;13.47;63.75
18201;BME280;9226;47.858;9.594;2022-09-27T15:08:57;93898.75;;;13.33;64.81
18201;BME280;9226;47.858;9.594;2022-09-27T15:11:22;93900.09;;;13.52;63.89
18201;BME280;9226;47.858;9.594;2022-09-27T15:13:50;93904.31;;;13.46;64.90
18201;BME280;9226;47.858;9.594;2022-09-27T15:16:19;93910.94;;;13.27;65.22
18201;BME280;9226;47.858;9.594;2022-09-27T15:18:47;93908.63;;;13.24;65.37
18201;BME280;9226;47.858;9.594;2022-09-27T15:21:33;93914.38;;;13.13;66.01
18201;BME280;9226;47.858;9.594;2022-09-27T15:24:01;93927.97;;;12.95;67.05
18201;BME280;9226;47.858;9.594;2022-09-27T15:26:44;93913.63;;;12.73;68.75
18201;BME280;9226;47.858;9.594;2022-09-27T15:29:22;93913.50;;;12.66;69.27
18201;BME280;9226;47.858;9.594;2022-09-27T15:32:06;93921.66;;;12.64;69.79
18201;BME280;9226;47.858;9.594;2022-09-27T15:34:33;93922.38;;;12.58;69.38
18201;BME280;9226;47.858;9.594;2022-09-27T15:37:00;93928.22;;;12.54;69.61
18201;BME280;9226;47.858;9.594;2022-09-27T15:39:38;93929.91;;;12.46;69.94
18201;BME280;9226;47.858;9.594;2022-09-27T15:44:58;93940.47;;;12.23;71.63
18201;BME280;9226;47.858;9.594;2022-09-27T15:50:30;93953.59;;;12.25;71.30
18201;BME280;9226;47.858;9.594;2022-09-27T15:52:56;93945.31;;;12.20;71.80
18201;BME280;9226;47.858;9.594;2022-09-27T15:55:26;93944.84;;;12.16;72.25
18201;BME280;9226;47.858;9.594;2022-09-27T15:57:55;93944.97;;;12.23;71.38
18201;BME280;9226;47.858;9.594;2022-09-27T16:00:25;93946.59;;;12.24;71.49
18201;BME280;9226;47.858;9.594;2022-09-27T16:02:50;93944.31;;;12.21;72.16
18201;BME280;9226;47.858;9.594;2022-09-27T16:05:16;93942.94;;;12.33;71.29
18201;BME280;9226;47.858;9.594;2022-09-27T16:07:41;93956.22;;;12.33;71.35
18201;BME280;9226;47.858;9.594;2022-09-27T16:10:22;93955.97;;;12.11;72.42
18201;BME280;9226;47.858;9.594;2022-09-27T16:12:49;93955.97;;;12.11;71.97
18201;BME280;9226;47.858;9.594;2022-09-27T16:15:15;93963.31;;;12.01;72.29
18201;BME280;9226;47.858;9.594;2022-09-27T16:17:41;93963.63;;;12.06;71.71
18201;BME280;9226;47.858;9.594;2022-09-27T16:20:21;93960.63;;;12.09;71.29
18201;BME280;9226;47.858;9.594;2022-09-27T16:22:52;93962.66;;;11.99;72.23
18201;BME280;9226;47.858;9.594;2022-09-27T16:25:18;93950.19;;;11.91;72.79
18201;BME280;9226;47.858;9.594;2022-09-27T16:27:44;93952.19;;;11.89;72.12
18201;BME280;9226;47.858;9.594;2022-09-27T16:30:10;93950.69;;;11.87;72.40
18201;BME280;9226;47.858;9.594;2022-09-27T16:32:44;93960.31;;;11.88;71.68
18201;BME280;9226;47.858;9.594;2022-09-27T16:35:12;93961.00;;;11.73;71.54
18201;BME280;9226;47.858;9.594;2022-09-27T16:37:38;93953.34;;;11.79;71.59
18201;BME280;9226;47.858;9.594;2022-09-27T16:40:05;93958.66;;;11.79;71.95
18201;BME280;9226;47.858;9.594;2022-09-27T16:42:32;93958.34;;;11.73;71.59
18201;BME280;9226;47.858;9.594;2022-09-27T16:44:58;93946.91;;;11.56;72.02